« Back
NWS Peachtree City, Ga » Text Product » MCN Terminal Aerodrome Forecast

Printer-friendly Version
Current Version              Previous Versions:   1  2  3  4  5  6  7  8  9  

Terminal Aerodrome Forecast

FTUS42 KFFC 301737
KMCN 301737Z 3018/0118 12005KT P6SM SCT070
     FM302200 21003KT P6SM BKN070
     FM010700 00000KT P6SM OVC030
     FM011100 20003KT P6SM BKN012
     FM011500 20003KT P6SM BKN045=

USA.gov is the U.S. government's official web portal to all federal, state and local government web resources and services.